Time;durP1;ratioP1;P1;durP2;ratioP2;P2;SDS_P1;SDS_P2;PMS_P1;PMS_P2;Temp;Humidity;BMP_temperature;BMP_pressure;BME280_temperature;BME280_humidity;BME280_pressure;Samples;Min_cycle;Max_cycle;Signal;HPM_P1;HPM_P2
2023/11/30 00:00:22;;;;;;;34.67;17.40;;;;;;;-1.46;100.00;99338.72;4993225;58;1141125;-74
2023/11/30 00:05:29;;;;;;;37.60;19.23;;;;;;;-1.39;100.00;99341.88;4973134;58;1140921;-75
2023/11/30 00:10:35;;;;;;;34.57;18.10;;;;;;;-1.40;100.00;99340.19;4886158;59;1140926;-75
2023/11/30 00:15:40;;;;;;;36.20;18.93;;;;;;;-1.44;100.00;99343.38;4909148;59;1140746;-75
2023/11/30 00:20:46;;;;;;;32.20;17.20;;;;;;;-1.44;100.00;99342.53;4893367;58;1140788;-73
2023/11/30 00:25:51;;;;;;;33.67;16.10;;;;;;;-1.42;100.00;99338.13;4893537;58;1140947;-74
2023/11/30 00:30:57;;;;;;;34.05;16.97;;;;;;;-1.39;100.00;99346.22;4902936;58;1141143;-76
2023/11/30 00:36:03;;;;;;;31.87;14.83;;;;;;;-1.39;100.00;99339.28;4913217;59;1140949;-74
2023/11/30 00:41:16;;;;;;;28.27;17.30;;;;;;;-1.38;100.00;99346.15;4893144;58;1140816;-74
2023/11/30 00:46:22;;;;;;;28.25;14.13;;;;;;;-1.38;100.00;99351.79;4893372;58;1140739;-74
2023/11/30 00:51:29;;;;;;;29.73;13.83;;;;;;;-1.37;100.00;99353.44;4949815;58;1141021;-75
2023/11/30 00:56:35;;;;;;;35.27;16.87;;;;;;;-1.38;100.00;99357.81;4937260;58;1140868;-75
2023/11/30 01:01:40;;;;;;;32.13;17.63;;;;;;;-1.45;100.00;99354.66;4936673;58;1141036;-74
2023/11/30 01:06:46;;;;;;;29.63;16.00;;;;;;;-1.46;100.00;99352.98;4975677;58;1140812;-74
2023/11/30 01:11:52;;;;;;;30.50;15.80;;;;;;;-1.44;100.00;99353.75;4899931;59;1141241;-75
2023/11/30 01:16:57;;;;;;;35.60;17.73;;;;;;;-1.43;100.00;99354.59;4892498;58;1140812;-75
2023/11/30 01:22:05;;;;;;;31.00;16.57;;;;;;;-1.44;100.00;99348.56;4892874;58;1257351;-74
2023/11/30 01:27:10;;;;;;;29.37;14.05;;;;;;;-1.42;100.00;99349.80;4913436;59;1141073;-74
2023/11/30 01:32:16;;;;;;;31.80;16.75;;;;;;;-1.40;100.00;99349.72;4892042;58;1141000;-74
2023/11/30 01:37:22;;;;;;;30.25;15.98;;;;;;;-1.39;100.00;99350.95;4844187;58;1141136;-74
2023/11/30 01:42:28;;;;;;;25.67;14.67;;;;;;;-1.37;100.00;99346.50;4857250;59;1140876;-75
2023/11/30 01:47:34;;;;;;;28.70;14.07;;;;;;;-1.37;100.00;99351.69;4949748;58;1140956;-74
2023/11/30 01:52:40;;;;;;;28.57;14.33;;;;;;;-1.35;100.00;99345.14;4974836;58;1140802;-74
2023/11/30 01:57:46;;;;;;;28.30;15.00;;;;;;;-1.35;100.00;99344.68;4994477;58;1140763;-75
2023/11/30 02:02:51;;;;;;;26.93;13.60;;;;;;;-1.33;100.00;99342.02;4974942;58;1141095;-75
2023/11/30 02:07:57;;;;;;;31.33;14.80;;;;;;;-1.33;100.00;99348.05;4934731;58;1140996;-75
2023/11/30 02:13:03;;;;;;;25.02;12.15;;;;;;;-1.30;100.00;99338.83;4895331;59;1141042;-75
2023/11/30 02:18:09;;;;;;;32.07;15.57;;;;;;;-1.27;100.00;99338.69;4914331;59;1140834;-75
2023/11/30 02:23:14;;;;;;;31.47;15.33;;;;;;;-1.26;100.00;99341.66;4895249;59;1140914;-74
2023/11/30 02:28:22;;;;;;;24.32;12.35;;;;;;;-1.24;100.00;99339.00;4890119;59;1140759;-75
2023/11/30 02:33:29;;;;;;;18.83;10.00;;;;;;;-1.23;100.00;99345.41;4825059;58;1141063;-74
2023/11/30 02:38:34;;;;;;;23.10;12.13;;;;;;;-1.21;100.00;99342.72;4817749;58;1140831;-75
2023/11/30 02:43:40;;;;;;;24.47;11.97;;;;;;;-1.19;100.00;99342.19;4874275;57;1141087;-74
2023/11/30 02:48:46;;;;;;;20.77;10.20;;;;;;;-1.17;100.00;99346.84;4902759;59;1140836;-74
2023/11/30 02:53:52;;;;;;;19.97;11.07;;;;;;;-1.16;100.00;99354.56;4885315;59;1140934;-75
2023/11/30 02:58:57;;;;;;;31.57;15.87;;;;;;;-1.11;100.00;99350.45;4894133;59;1140654;-75
2023/11/30 03:04:03;;;;;;;18.62;10.60;;;;;;;-1.09;100.00;99349.47;4894869;59;1140940;-74
2023/11/30 03:09:10;;;;;;;23.47;11.53;;;;;;;-1.06;100.00;99349.30;4914101;59;1141079;-75
2023/11/30 03:14:16;;;;;;;20.33;12.87;;;;;;;-1.03;100.00;99350.06;4895377;59;1141163;-74
2023/11/30 03:19:22;;;;;;;19.62;9.85;;;;;;;-1.01;100.00;99347.78;4895154;59;1140946;-74
2023/11/30 03:24:27;;;;;;;20.35;10.95;;;;;;;-1.00;100.00;99340.84;4914118;59;1138658;-74
2023/11/30 03:29:34;;;;;;;19.77;10.90;;;;;;;-1.01;100.00;99336.56;4866489;58;1140746;-73
2023/11/30 03:34:39;;;;;;;18.50;10.80;;;;;;;-1.03;100.00;99339.69;4817207;60;1140774;-75
2023/11/30 03:39:45;;;;;;;20.30;10.97;;;;;;;-1.06;100.00;99349.30;4887520;59;1140865;-74
2023/11/30 03:44:50;;;;;;;14.90;8.13;;;;;;;-1.08;100.00;99342.53;4892382;59;1140893;-74
2023/11/30 03:49:56;;;;;;;14.00;7.60;;;;;;;-1.12;100.00;99348.31;4892908;59;1138713;-74
2023/11/30 03:55:01;;;;;;;18.33;9.87;;;;;;;-1.12;100.00;99351.37;4894508;59;1139025;-74
2023/11/30 04:00:12;;;;;;;10.63;6.63;;;;;;;-1.12;100.00;99348.31;4913316;59;1138972;-75
2023/11/30 04:05:15;;;;;;;18.10;10.63;;;;;;;-1.16;100.00;99353.27;4860509;59;1138751;-76
2023/11/30 04:10:21;;;;;;;15.90;9.07;;;;;;;-1.12;100.00;99357.86;4894536;58;1140953;-74
2023/11/30 04:15:26;;;;;;;16.37;9.63;;;;;;;-1.09;100.00;99355.12;4835653;60;1138814;-75
2023/11/30 04:20:32;;;;;;;10.90;6.83;;;;;;;-1.07;100.00;99370.16;4894433;58;1138703;-75
2023/11/30 04:25:37;;;;;;;17.80;9.87;;;;;;;-1.06;100.00;99368.76;4869450;56;1138966;-74
2023/11/30 04:30:43;;;;;;;11.43;7.20;;;;;;;-1.07;100.00;99371.45;4813336;58;1138803;-74
2023/11/30 04:35:49;;;;;;;15.43;9.90;;;;;;;-1.08;100.00;99369.31;4925590;58;1138834;-74
2023/11/30 04:40:54;;;;;;;13.70;7.77;;;;;;;-1.07;100.00;99377.94;4961373;58;1138807;-74
2023/11/30 04:46:00;;;;;;;10.87;7.30;;;;;;;-1.08;100.00;99382.29;4913121;58;1139105;-74
2023/11/30 04:51:06;;;;;;;14.87;7.53;;;;;;;-1.09;100.00;99374.13;4900385;57;1138598;-75
2023/11/30 04:56:12;;;;;;;9.70;5.90;;;;;;;-1.09;100.00;99379.77;4881892;58;1138779;-75
2023/11/30 05:01:18;;;;;;;10.90;5.37;;;;;;;-1.11;100.00;99386.78;4882748;58;1136856;-74
2023/11/30 05:06:23;;;;;;;10.13;6.00;;;;;;;-1.11;100.00;99391.52;4901207;59;1138864;-75
2023/11/30 05:11:29;;;;;;;8.48;5.85;;;;;;;-1.11;100.00;99385.48;4882146;59;1138774;-75
2023/11/30 05:16:35;;;;;;;7.23;5.23;;;;;;;-1.10;100.00;99390.60;4882694;59;1136789;-74
2023/11/30 05:21:40;;;;;;;8.20;5.30;;;;;;;-1.10;100.00;99387.16;4901271;59;1136971;-74
2023/11/30 05:26:46;;;;;;;5.83;4.90;;;;;;;-1.10;100.00;99390.60;4878723;59;1137010;-75
2023/11/30 05:31:51;;;;;;;8.90;6.00;;;;;;;-1.09;100.00;99397.47;4899743;58;1137033;-75
2023/11/30 05:36:57;;;;;;;7.67;5.53;;;;;;;-1.10;100.00;99394.49;4963979;58;1136707;-75
2023/11/30 05:42:03;;;;;;;8.13;5.30;;;;;;;-1.10;100.00;99394.49;4883342;58;1136721;-76
2023/11/30 05:47:09;;;;;;;8.13;6.00;;;;;;;-1.12;100.00;99397.61;4881178;58;1136935;-75
2023/11/30 05:52:14;;;;;;;7.80;4.57;;;;;;;-1.15;100.00;99393.86;4890238;58;1136960;-76
2023/11/30 05:57:20;;;;;;;4.90;4.00;;;;;;;-1.15;100.00;99402.94;4880071;59;1136791;-75
2023/11/30 06:02:26;;;;;;;8.10;5.27;;;;;;;-1.17;100.00;99408.66;4882309;58;1137000;-75
2023/11/30 06:07:33;;;;;;;5.92;4.60;;;;;;;-1.16;100.00;99415.53;4901662;58;1136646;-74
2023/11/30 06:12:40;;;;;;;5.40;4.73;;;;;;;-1.16;100.00;99419.42;4882226;58;1136630;-74
2023/11/30 06:17:46;;;;;;;6.33;4.60;;;;;;;-1.16;100.00;99426.36;4874855;59;1136692;-69
2023/11/30 06:22:52;;;;;;;11.83;7.10;;;;;;;-1.19;100.00;99440.31;4899816;58;1136472;-70
2023/11/30 06:27:57;;;;;;;7.80;5.23;;;;;;;-1.21;100.00;99451.21;4923062;58;1139123;-69
2023/11/30 06:33:03;;;;;;;9.50;6.37;;;;;;;-1.22;100.00;99458.61;4908818;58;1136717;-71
2023/11/30 06:38:10;;;;;;;15.40;9.10;;;;;;;-1.22;100.00;99468.98;4897469;58;1136723;-69
2023/11/30 06:43:15;;;;;;;8.07;5.63;;;;;;;-1.21;100.00;99474.55;4865197;58;1138643;-70
2023/11/30 06:48:24;;;;;;;7.70;5.00;;;;;;;-1.25;100.00;99473.49;4852534;59;1136693;-79
2023/11/30 06:53:28;;;;;;;8.70;6.60;;;;;;;-1.30;100.00;99485.37;4877773;58;1136855;-76
2023/11/30 06:58:34;;;;;;;11.15;4.58;;;;;;;-1.35;100.00;99489.91;4802635;59;1136660;-77
2023/11/30 07:03:39;;;;;;;9.17;5.57;;;;;;;-1.42;100.00;99490.66;4846978;59;1138962;-77
2023/11/30 07:08:45;;;;;;;11.67;6.70;;;;;;;-1.46;100.00;99503.38;4869438;59;1136527;-78
2023/11/30 07:13:50;;;;;;;18.63;9.70;;;;;;;-1.48;100.00;99508.23;4889652;57;1138660;-75
2023/11/30 07:18:56;;;;;;;25.53;11.90;;;;;;;-1.50;100.00;99515.23;4889745;57;1138972;-75
2023/11/30 07:24:01;;;;;;;20.90;8.93;;;;;;;-1.52;100.00;99511.87;4885128;57;1141091;-77
2023/11/30 07:29:07;;;;;;;14.47;7.87;;;;;;;-1.50;100.00;99523.02;4833739;60;1139129;-75
2023/11/30 07:34:12;;;;;;;18.17;9.33;;;;;;;-1.52;100.00;99522.23;4893250;58;1138897;-76
2023/11/30 07:39:19;;;;;;;8.78;5.64;;;;;;;-1.54;100.00;99532.70;4910774;58;1138721;-71
2023/11/30 07:44:27;;;;;;;11.00;6.62;;;;;;;-1.54;100.00;99527.52;4934473;58;1136509;-69
2023/11/30 07:49:32;;;;;;;8.78;6.28;;;;;;;-1.54;100.00;99537.89;4909371;58;1138800;-70
2023/11/30 07:54:37;;;;;;;11.00;5.63;;;;;;;-1.54;100.00;99537.89;4894362;58;1136738;-69
2023/11/30 07:59:44;;;;;;;7.13;4.80;;;;;;;-1.56;100.00;99539.70;4912167;59;1138798;-69
2023/11/30 08:04:49;;;;;;;6.33;4.87;;;;;;;-1.57;100.00;99552.28;4893862;58;1136704;-69
2023/11/30 08:09:55;;;;;;;5.33;3.87;;;;;;;-1.58;100.00;99555.78;4892910;58;1136505;-69
2023/11/30 08:15:00;;;;;;;7.57;4.27;;;;;;;-1.60;100.00;99548.52;4894139;58;1136561;-69
2023/11/30 08:20:13;;;;;;;11.03;3.20;;;;;;;-1.61;100.00;99551.17;4942293;58;1136658;-69
2023/11/30 08:25:17;;;;;;;9.23;5.10;;;;;;;-1.67;100.00;99551.42;4953454;58;1138902;-70
2023/11/30 08:30:23;;;;;;;14.53;7.20;;;;;;;-1.70;100.00;99558.06;4953887;57;1136682;-69
2023/11/30 08:35:28;;;;;;;10.03;6.03;;;;;;;-1.69;100.00;99567.52;4973392;58;1138857;-70
2023/11/30 08:40:34;;;;;;;10.03;6.83;;;;;;;-1.75;100.00;99567.77;4934036;58;1138836;-69
2023/11/30 08:45:39;;;;;;;6.13;4.17;;;;;;;-1.77;100.00;99574.31;4893673;58;1138469;-70
2023/11/30 08:50:45;;;;;;;5.40;3.80;;;;;;;-1.80;100.00;99570.55;4913044;59;1136689;-69
2023/11/30 08:55:50;;;;;;;5.27;3.90;;;;;;;-1.85;100.00;99577.70;4892922;59;1136745;-69
2023/11/30 09:00:56;;;;;;;6.93;3.43;;;;;;;-1.90;100.00;99580.47;4894180;59;1136758;-70
2023/11/30 09:06:02;;;;;;;7.97;5.77;;;;;;;-1.90;100.00;99580.92;4873171;58;1136754;-70
2023/11/30 09:11:08;;;;;;;9.33;5.30;;;;;;;-1.91;100.00;99576.20;4911136;59;1136776;-70
2023/11/30 09:16:13;;;;;;;5.27;3.97;;;;;;;-1.94;100.00;99574.17;4890416;59;1136868;-71
2023/11/30 09:21:19;;;;;;;11.80;6.60;;;;;;;-1.92;100.00;99573.66;4888172;59;1136827;-71
2023/11/30 09:26:25;;;;;;;12.40;6.77;;;;;;;-1.91;100.00;99576.20;4906309;59;1138758;-71
2023/11/30 09:31:31;;;;;;;10.93;6.87;;;;;;;-1.89;100.00;99588.64;4887324;59;1138844;-70
2023/11/30 09:36:36;;;;;;;12.28;6.80;;;;;;;-1.86;100.00;99585.08;4903470;58;1139226;-70
2023/11/30 09:41:42;;;;;;;11.27;7.60;;;;;;;-1.82;100.00;99579.68;4837774;59;1138867;-71
2023/11/30 09:46:49;;;;;;;10.83;7.87;;;;;;;-1.76;100.00;99569.52;4888777;58;1138393;-70
2023/11/30 09:51:56;;;;;;;10.33;6.73;;;;;;;-1.66;100.00;99575.98;4881413;58;1138790;-69
2023/11/30 09:57:02;;;;;;;8.17;4.80;;;;;;;-1.66;100.00;99570.80;4870336;59;1138876;-69
2023/11/30 10:02:10;;;;;;;11.23;6.90;;;;;;;-1.70;100.00;99561.50;4832729;59;1136924;-69
2023/11/30 10:07:16;;;;;;;8.10;5.70;;;;;;;-1.70;100.00;99554.17;4811591;58;1138915;-70
2023/11/30 10:12:24;;;;;;;11.73;6.83;;;;;;;-1.69;100.00;99557.16;4811373;58;1136549;-69
2023/11/30 10:17:29;;;;;;;25.08;9.48;;;;;;;-1.65;100.00;99553.50;4818285;58;1138953;-70
2023/11/30 10:22:35;;;;;;;20.60;8.57;;;;;;;-1.69;100.00;99549.38;4792715;58;1138639;-70
2023/11/30 10:27:42;;;;;;;39.90;13.50;;;;;;;-1.69;100.00;99554.56;4795985;58;1138778;-75
2023/11/30 10:32:49;;;;;;;405.83;94.23;;;;;;;-1.68;100.00;99544.09;4824468;59;1140913;-74
2023/11/30 10:37:57;;;;;;;30.27;10.70;;;;;;;-1.64;100.00;99548.25;4802892;59;1142955;-75
2023/11/30 10:43:06;;;;;;;26.33;10.37;;;;;;;-1.66;100.00;99537.10;4810327;59;1140766;-75
2023/11/30 10:48:13;;;;;;;11.10;6.23;;;;;;;-1.68;100.00;99530.33;4807435;59;1148349;-70
2023/11/30 10:54:07;;;;;;;9.03;6.00;;;;;;;-1.63;100.00;99533.54;4830822;59;1138762;-71
2023/11/30 10:59:16;;;;;;;26.47;9.47;;;;;;;-1.55;100.00;99530.17;4847249;59;1136976;-69
2023/11/30 11:04:25;;;;;;;9.73;7.00;;;;;;;-1.37;100.00;99519.41;4892404;59;1138970;-71
2023/11/30 11:09:46;;;;;;;9.87;6.63;;;;;;;-1.27;100.00;99518.95;4906516;57;1136759;-74
2023/11/30 11:14:53;;;;;;;14.10;7.63;;;;;;;-1.12;100.00;99521.30;4886876;59;1136733;-76
2023/11/30 11:20:01;;;;;;;12.10;8.40;;;;;;;-0.96;100.00;99515.80;4889264;59;1138687;-76
2023/11/30 11:25:08;;;;;;;13.38;8.50;;;;;;;-0.93;100.00;99502.68;4891634;59;1139030;-77
2023/11/30 11:30:14;;;;;;;13.53;8.13;;;;;;;-0.78;100.00;99514.09;4879235;58;1138964;-77
2023/11/30 11:35:20;;;;;;;10.70;7.12;;;;;;;-0.68;100.00;99517.92;4892014;58;1139166;-77
2023/11/30 11:40:26;;;;;;;13.17;8.13;;;;;;;-0.55;100.00;99524.66;4860125;59;1138999;-76
2023/11/30 11:45:39;;;;;;;158.70;31.43;;;;;;;-0.43;100.00;99521.02;4898990;59;1139205;-77
2023/11/30 11:50:39;;;;;;;26.47;12.53;;;;;;;-0.01;100.00;99517.23;4890145;59;1142850;-76
2023/11/30 11:55:45;;;;;;;78.37;18.70;;;;;;;0.24;100.00;99515.52;4873274;59;1140817;-77
2023/11/30 12:00:55;;;;;;;58.33;21.77;;;;;;;0.34;100.00;99521.91;4910856;56;1138866;-71
2023/11/30 12:06:01;;;;;;;56.13;21.57;;;;;;;0.13;100.00;99529.07;4873560;58;1138726;-70
2023/11/30 12:11:07;;;;;;;103.10;36.47;;;;;;;-0.16;100.00;99527.94;4892117;56;1138884;-69
2023/11/30 12:16:12;;;;;;;103.47;39.63;;;;;;;-0.40;100.00;99530.41;4862078;58;1142971;-69
2023/11/30 12:21:21;;;;;;;32.78;16.65;;;;;;;-0.57;100.00;99531.23;4811141;60;1142880;-69
2023/11/30 12:26:25;;;;;;;42.70;18.47;;;;;;;-0.66;100.00;99525.19;4920375;58;1140883;-69
2023/11/30 12:31:30;;;;;;;53.35;33.65;;;;;;;-0.70;100.00;99528.84;4936431;58;1140793;-71
2023/11/30 12:36:36;;;;;;;39.53;19.77;;;;;;;-0.77;100.00;99517.92;4848972;58;1140746;-70
2023/11/30 12:41:41;;;;;;;35.30;17.37;;;;;;;-0.75;100.00;99520.41;4889348;58;1140794;-70
2023/11/30 12:46:47;;;;;;;46.33;18.07;;;;;;;-0.76;100.00;99520.87;4865296;58;1140940;-69
2023/11/30 12:51:53;;;;;;;41.37;18.40;;;;;;;-0.74;100.00;99515.16;4892131;58;1140848;-68
2023/11/30 12:56:58;;;;;;;33.60;18.93;;;;;;;-0.75;100.00;99509.57;4866688;59;1140896;-69
2023/11/30 13:02:06;;;;;;;17.10;11.23;;;;;;;-0.47;100.00;99510.88;4869315;58;1141053;-76
2023/11/30 13:07:11;;;;;;;18.57;10.90;;;;;;;-0.47;100.00;99510.41;4872828;58;1140776;-70
2023/11/30 13:12:17;;;;;;;61.40;25.37;;;;;;;-0.56;100.00;99513.89;4858806;58;1140870;-69
2023/11/30 13:17:23;;;;;;;163.90;59.87;;;;;;;-0.63;100.00;99515.96;4859612;58;1140894;-69
2023/11/30 13:22:28;;;;;;;441.37;178.73;;;;;;;-0.68;100.00;99514.03;4870924;58;1142812;-69
2023/11/30 13:27:34;;;;;;;124.07;37.50;;;;;;;-0.72;100.00;99510.73;4853694;58;1145231;-69
2023/11/30 13:32:40;;;;;;;44.97;20.67;;;;;;;-0.79;100.00;99504.16;4845273;58;1142872;-69
2023/11/30 13:37:45;;;;;;;45.80;21.63;;;;;;;-0.83;100.00;99509.11;4873566;58;1140844;-70
2023/11/30 13:42:51;;;;;;;31.40;15.57;;;;;;;-0.80;100.00;99512.87;4892790;58;1141044;-70
2023/11/30 13:47:57;;;;;;;22.53;12.87;;;;;;;-0.66;100.00;99508.31;4864432;58;1140885;-71
2023/11/30 13:53:02;;;;;;;53.07;20.17;;;;;;;-0.12;100.00;99510.41;4815635;58;1141053;-70
2023/11/30 13:58:08;;;;;;;31.03;14.40;;;;;;;-0.22;100.00;99510.49;4866726;58;1140796;-69
2023/11/30 14:03:16;;;;;;;28.70;14.00;;;;;;;-0.37;100.00;99501.70;4863861;58;1140806;-69
2023/11/30 14:08:21;;;;;;;74.63;28.07;;;;;;;-0.53;100.00;99497.71;4861486;58;1140985;-69
2023/11/30 14:13:26;;;;;;;31.47;14.60;;;;;;;-0.63;100.00;99499.54;4851509;57;1141555;-69
2023/11/30 14:18:32;;;;;;;49.53;22.10;;;;;;;-0.77;100.00;99504.09;4852003;58;1141314;-69
2023/11/30 14:23:38;;;;;;;27.07;14.13;;;;;;;-0.94;100.00;99509.23;4842499;58;1140812;-69
2023/11/30 14:28:48;;;;;;;95.53;35.43;;;;;;;-1.05;100.00;99517.50;4834115;59;1140767;-70
2023/11/30 14:33:50;;;;;;;64.57;25.47;;;;;;;-1.15;100.00;99517.55;4851821;59;1140960;-70
2023/11/30 14:38:57;;;;;;;395.50;105.70;;;;;;;-1.21;100.00;99516.06;4863359;58;1141015;-69
2023/11/30 14:44:03;;;;;;;213.73;66.20;;;;;;;-1.23;100.00;99511.42;4850849;58;1237558;-72
2023/11/30 14:49:09;;;;;;;74.35;26.93;;;;;;;-1.19;100.00;99510.80;4893549;59;1143227;-70
2023/11/30 14:54:14;;;;;;;38.43;15.80;;;;;;;-1.15;100.00;99507.17;4908563;58;1140873;-69
2023/11/30 14:59:20;;;;;;;43.67;17.67;;;;;;;-1.06;100.00;99508.88;4947809;58;1141165;-69
2023/11/30 15:04:27;;;;;;;86.60;32.30;;;;;;;-1.18;100.00;99504.71;4923739;58;1141655;-75
2023/11/30 15:09:34;;;;;;;147.10;58.30;;;;;;;-1.28;100.00;99506.89;4893173;58;1140826;-75
2023/11/30 15:14:40;;;;;;;263.20;95.42;;;;;;;-1.32;100.00;99516.17;4877588;58;1143106;-74
2023/11/30 15:19:45;;;;;;;146.70;72.10;;;;;;;-1.31;100.00;99510.91;4810012;59;1142977;-75
2023/11/30 15:24:51;;;;;;;269.10;82.30;;;;;;;-1.31;100.00;99510.91;4715723;59;1142955;-75
2023/11/30 15:29:56;;;;;;;281.73;100.30;;;;;;;-1.18;100.00;99517.68;4697983;59;1142984;-77
2023/11/30 15:35:02;;;;;;;262.20;96.17;;;;;;;-1.16;100.00;99513.27;4708003;59;1145035;-75
2023/11/30 15:40:10;;;;;;;343.97;128.42;;;;;;;-1.19;100.00;99520.73;4823244;58;1143221;-74
2023/11/30 15:45:16;;;;;;;164.63;63.57;;;;;;;-1.24;100.00;99515.39;4757291;60;1144972;-77
2023/11/30 15:50:24;;;;;;;130.73;51.10;;;;;;;-1.33;100.00;99519.22;4748365;58;1143145;-76
2023/11/30 15:55:29;;;;;;;140.87;57.67;;;;;;;-1.32;100.00;99513.58;4776755;59;1142912;-75
2023/11/30 16:00:37;;;;;;;204.00;71.83;;;;;;;-1.21;100.00;99519.11;4755222;59;1142872;-75
2023/11/30 16:05:43;;;;;;;83.00;35.53;;;;;;;-1.15;100.00;99513.66;4790683;59;1142984;-77
2023/11/30 16:10:48;;;;;;;87.20;38.80;;;;;;;-1.19;100.00;99505.16;4768516;58;1140851;-77
2023/11/30 16:15:54;;;;;;;102.73;48.03;;;;;;;-1.27;100.00;99496.91;4847288;58;1141002;-77
2023/11/30 16:20:59;;;;;;;126.75;57.45;;;;;;;-1.36;100.00;99494.71;4798983;59;1143008;-77
2023/11/30 16:26:05;;;;;;;151.80;66.35;;;;;;;-1.50;100.00;99495.79;4736412;58;1142988;-75
2023/11/30 16:31:10;;;;;;;132.25;60.15;;;;;;;-1.66;100.00;99490.90;4720642;60;1142877;-76
2023/11/30 16:36:16;;;;;;;122.20;54.40;;;;;;;-1.70;100.00;99497.99;4741466;58;1143000;-73
2023/11/30 16:41:22;;;;;;;124.63;52.07;;;;;;;-1.78;100.00;99506.54;4714224;59;1143200;-75
2023/11/30 16:46:27;;;;;;;213.57;80.77;;;;;;;-1.78;100.00;99513.02;4781441;58;1143015;-75
2023/11/30 16:51:33;;;;;;;240.10;85.37;;;;;;;-1.77;100.00;99512.95;4848477;59;1143219;-75
2023/11/30 16:56:39;;;;;;;212.02;70.60;;;;;;;-1.74;100.00;99515.03;4843941;59;1143123;-77
2023/11/30 17:01:45;;;;;;;201.93;74.53;;;;;;;-1.73;100.00;99517.56;4807032;59;1142877;-77
2023/11/30 17:06:50;;;;;;;156.97;57.43;;;;;;;-1.78;100.00;99522.94;4812913;58;1143054;-78
2023/11/30 17:11:56;;;;;;;335.23;121.47;;;;;;;-1.86;100.00;99530.66;4821797;58;1143139;-78
2023/11/30 17:17:02;;;;;;;547.20;221.22;;;;;;;-2.08;100.00;99528.13;4870352;57;1145024;-77
2023/11/30 17:22:08;;;;;;;410.20;152.90;;;;;;;-2.21;100.00;99523.07;4895072;57;1145565;-76
2023/11/30 17:27:13;;;;;;;226.17;84.70;;;;;;;-2.28;100.00;99534.13;4859320;58;1145053;-77
2023/11/30 17:32:19;;;;;;;215.18;80.55;;;;;;;-2.26;100.00;99536.20;4825407;57;1143018;-75
2023/11/30 17:37:25;;;;;;;199.97;77.57;;;;;;;-2.26;100.00;99532.31;4822507;59;1143117;-75
2023/11/30 17:42:30;;;;;;;471.98;141.12;;;;;;;-2.32;100.00;99531.74;4780413;58;1143064;-75
2023/11/30 17:47:36;;;;;;;283.67;88.27;;;;;;;-2.36;100.00;99528.87;4794873;59;1145303;-76
2023/11/30 17:52:41;;;;;;;398.57;138.70;;;;;;;-2.39;100.00;99540.20;4810708;57;1142929;-76
2023/11/30 17:57:47;;;;;;;354.40;128.03;;;;;;;-2.39;100.00;99541.94;4884510;57;1144941;-76
2023/11/30 18:02:53;;;;;;;270.17;89.20;;;;;;;-2.37;100.00;99536.25;4891918;58;1144957;-76
2023/11/30 18:07:59;;;;;;;709.03;215.37;;;;;;;-2.38;100.00;99533.27;4912858;58;1143198;-76
2023/11/30 18:13:04;;;;;;;144.47;43.10;;;;;;;-2.44;100.00;99531.77;4891994;57;1145284;-75
2023/11/30 18:18:10;;;;;;;83.47;32.60;;;;;;;-2.54;100.00;99529.16;4863341;59;1142908;-76
2023/11/30 18:23:16;;;;;;;75.53;27.53;;;;;;;-2.78;100.00;99522.39;4849594;58;1140897;-76
2023/11/30 18:28:21;;;;;;;77.73;36.87;;;;;;;-2.86;100.00;99520.08;4798068;58;1140790;-75
2023/11/30 18:33:27;;;;;;;193.20;60.70;;;;;;;-2.88;100.00;99508.95;4756858;60;1141063;-70
2023/11/30 18:38:32;;;;;;;166.03;58.50;;;;;;;-2.88;100.00;99508.95;4775896;60;1143119;-69
2023/11/30 18:43:38;;;;;;;132.60;49.53;;;;;;;-2.89;100.00;99508.55;4716541;60;1143167;-69
2023/11/30 18:48:44;;;;;;;137.53;49.30;;;;;;;-2.86;100.00;99508.44;4724727;59;1143108;-70
2023/11/30 18:53:49;;;;;;;130.20;52.40;;;;;;;-2.89;100.00;99508.55;4862456;58;1142900;-70
2023/11/30 18:58:56;;;;;;;104.20;44.13;;;;;;;-2.93;100.00;99505.27;4862973;58;1142955;-69
2023/11/30 19:04:02;;;;;;;111.87;43.77;;;;;;;-3.10;100.00;99500.34;4860015;58;1142861;-69
2023/11/30 19:09:08;;;;;;;113.52;42.95;;;;;;;-3.14;100.00;99497.03;4868619;58;1143056;-70
2023/11/30 19:14:13;;;;;;;95.13;39.57;;;;;;;-3.17;100.00;99491.13;4889261;58;1142959;-75
2023/11/30 19:19:19;;;;;;;86.50;33.90;;;;;;;-3.28;100.00;99479.91;4867775;58;1140797;-74
2023/11/30 19:24:25;;;;;;;89.83;38.27;;;;;;;-3.39;100.00;99479.48;4864443;58;1140854;-75
2023/11/30 19:29:30;;;;;;;110.23;40.53;;;;;;;-3.35;100.00;99487.04;4854329;58;1144274;-77
2023/11/30 19:34:37;;;;;;;246.20;75.57;;;;;;;-3.35;100.00;99487.48;4685968;58;1143057;-76
2023/11/30 19:39:42;;;;;;;211.68;70.15;;;;;;;-3.35;100.00;99484.45;4756929;58;1143119;-74
2023/11/30 19:44:48;;;;;;;203.00;69.22;;;;;;;-3.32;100.00;99491.26;4779050;59;1142974;-77
2023/11/30 19:49:53;;;;;;;202.80;72.30;;;;;;;-3.34;100.00;99492.60;4861341;59;1143010;-79
2023/11/30 19:55:00;;;;;;;380.42;124.00;;;;;;;-3.52;100.00;99502.36;4865354;59;1142929;-78
2023/11/30 20:00:07;;;;;;;300.73;103.77;;;;;;;-3.56;100.00;99493.86;4858505;59;1145041;-78
2023/11/30 20:05:18;;;;;;;244.07;81.17;;;;;;;-3.65;100.00;99492.05;4877835;59;1144996;-76
2023/11/30 20:10:24;;;;;;;170.60;62.50;;;;;;;-3.84;100.00;99502.22;4861092;59;1142959;-76
2023/11/30 20:15:30;;;;;;;188.40;68.43;;;;;;;-4.02;100.00;99504.15;4797770;58;1143028;-76
2023/11/30 20:20:35;;;;;;;194.67;69.00;;;;;;;-4.08;100.00;99505.19;4841707;57;1142659;-77
2023/11/30 20:25:41;;;;;;;213.03;74.10;;;;;;;-4.09;100.00;99514.28;4848816;59;1143024;-76
2023/11/30 20:30:47;;;;;;;213.70;76.07;;;;;;;-4.07;100.00;99517.66;4831114;57;1143156;-78
2023/11/30 20:35:52;;;;;;;153.10;54.77;;;;;;;-4.06;100.00;99518.05;4832202;58;1142862;-77
2023/11/30 20:40:58;;;;;;;145.05;50.43;;;;;;;-4.08;100.00;99523.27;4813530;57;1142929;-75
2023/11/30 20:46:03;;;;;;;269.55;86.12;;;;;;;-4.10;100.00;99523.76;4812233;59;1143131;-76
2023/11/30 20:51:11;;;;;;;225.53;72.65;;;;;;;-4.16;100.00;99521.85;4809653;59;1143204;-76
2023/11/30 20:56:16;;;;;;;198.43;62.17;;;;;;;-4.26;100.00;99521.30;4833235;59;1142970;-76
2023/11/30 21:01:22;;;;;;;169.77;53.73;;;;;;;-4.33;100.00;99527.58;4859869;59;1143108;-76
2023/11/30 21:06:27;;;;;;;131.57;47.63;;;;;;;-4.41;100.00;99521.80;4863256;59;1143168;-76
2023/11/30 21:11:33;;;;;;;157.63;52.87;;;;;;;-4.44;100.00;99515.48;4882584;59;1142927;-76
2023/11/30 21:16:39;;;;;;;271.70;81.72;;;;;;;-4.43;100.00;99519.75;4815556;59;1142871;-77
2023/11/30 21:21:44;;;;;;;279.57;87.50;;;;;;;-4.42;100.00;99527.41;4874998;58;1142914;-77
2023/11/30 21:26:50;;;;;;;405.20;116.57;;;;;;;-4.37;100.00;99533.72;4899600;58;1142843;-78
2023/11/30 21:31:56;;;;;;;389.02;124.35;;;;;;;-4.34;100.00;99533.18;4825028;58;1145277;-77
2023/11/30 21:37:02;;;;;;;371.27;119.27;;;;;;;-4.34;100.00;99528.47;4799772;58;1145234;-75
2023/11/30 21:42:07;;;;;;;337.43;103.33;;;;;;;-4.38;100.00;99525.13;4771584;59;1145245;-76
2023/11/30 21:47:13;;;;;;;252.68;86.40;;;;;;;-4.39;100.00;99520.02;4798577;59;1145093;-84
2023/11/30 21:52:19;;;;;;;284.87;89.53;;;;;;;-4.38;100.00;99523.84;4789728;59;1142754;-74
2023/11/30 21:57:24;;;;;;;263.80;96.30;;;;;;;-4.31;100.00;99523.21;4786880;56;1142855;-74
2023/11/30 22:02:30;;;;;;;274.77;92.72;;;;;;;-4.27;100.00;99522.19;4811291;58;1142789;-74
2023/11/30 22:07:35;;;;;;;261.60;97.20;;;;;;;-4.30;100.00;99525.74;4804506;57;1143418;-73
2023/11/30 22:12:41;;;;;;;335.43;116.57;;;;;;;-4.32;100.00;99529.27;4855496;58;1142906;-73
2023/11/30 22:17:47;;;;;;;344.90;116.73;;;;;;;-4.37;100.00;99528.56;4891825;58;1144892;-74
2023/11/30 22:22:52;;;;;;;301.53;102.60;;;;;;;-4.35;100.00;99532.78;4882785;58;1144954;-74
2023/11/30 22:27:58;;;;;;;305.77;95.30;;;;;;;-4.40;100.00;99531.23;4882402;58;1144941;-74
2023/11/30 22:33:04;;;;;;;231.57;78.83;;;;;;;-4.42;100.00;99520.96;4882942;58;1143155;-75
2023/11/30 22:38:09;;;;;;;229.27;78.60;;;;;;;-4.48;100.00;99513.44;4902627;58;1143005;-74